Terminal Aerodrome Forecast
Issued by NWS

Home | Current Version | Previous Version | Text Only | Print | Product List | Glossary On
Versions: 1 2 3 4 5 6 7 8 9 10 11 12 13 14 15
000
FTUS46 KLOX 272000 AAA
TAFPRB
TAF AMD
KPRB 272035Z 2721/2818 30012KT P6SM FEW025 BKN100
     FM272200 27015G22KT P6SM BKN050
     FM280800 30010KT P6SM SCT020 OVC040 PROB30 2808/2812 5SM -RA BR
      OVC020
     FM281400 20006KT 4SM -SHRA BKN015 OVC050=

USA.gov is the U.S. government's official web portal to all federal, state and local government web resources and services.